createdAt,value
2022-12-27T00:00:54.822Z,1.27
2022-12-27T00:03:22.832Z,1.47
2022-12-27T00:05:51.055Z,0.87
2022-12-27T00:08:20.327Z,1.30
2022-12-27T00:10:48.607Z,5.23
2022-12-27T00:13:16.239Z,1.23
2022-12-27T00:15:44.717Z,1.13
2022-12-27T00:18:12.481Z,1.53
2022-12-27T00:20:40.399Z,0.97
2022-12-27T00:23:08.067Z,0.97
2022-12-27T00:25:37.495Z,2.77
2022-12-27T00:28:05.432Z,2.57
2022-12-27T00:30:34.353Z,0.97
2022-12-27T00:33:02.052Z,2.30
2022-12-27T00:35:30.060Z,1.67
2022-12-27T00:37:57.791Z,0.90
2022-12-27T00:40:25.481Z,1.30
2022-12-27T00:42:56.202Z,2.70
2022-12-27T00:45:23.846Z,2.40
2022-12-27T00:47:51.820Z,1.60
2022-12-27T00:50:19.972Z,2.60
2022-12-27T00:52:47.542Z,0.97
2022-12-27T00:55:15.331Z,1.73
2022-12-27T00:57:43.748Z,2.10
2022-12-27T01:00:14.769Z,1.00
2022-12-27T01:02:42.418Z,5.83
2022-12-27T01:05:10.194Z,0.70
2022-12-27T01:07:44.366Z,2.13
2022-12-27T01:10:13.000Z,1.97
2022-12-27T01:12:41.159Z,2.43
2022-12-27T01:15:10.277Z,1.27
2022-12-27T01:17:39.958Z,1.53
2022-12-27T01:20:09.467Z,1.13
2022-12-27T01:22:37.737Z,2.83
2022-12-27T01:25:06.651Z,3.40
2022-12-27T01:27:34.627Z,4.57
2022-12-27T01:30:02.358Z,2.10
2022-12-27T01:32:30.845Z,1.53
2022-12-27T01:34:59.923Z,1.60
2022-12-27T01:37:29.135Z,2.33
2022-12-27T01:39:56.969Z,2.17
2022-12-27T01:42:42.585Z,1.73
2022-12-27T01:45:16.766Z,1.80
2022-12-27T01:47:50.928Z,1.43
2022-12-27T01:50:25.843Z,0.80
2022-12-27T01:52:58.371Z,3.17
2022-12-27T01:55:33.622Z,2.77
2022-12-27T01:58:06.434Z,1.10
2022-12-27T02:00:34.540Z,1.90
2022-12-27T02:03:03.433Z,1.23
2022-12-27T02:05:33.781Z,1.57
2022-12-27T02:08:12.712Z,2.20
2022-12-27T02:10:41.764Z,1.47
2022-12-27T02:13:09.918Z,1.40
2022-12-27T02:15:37.905Z,1.40
2022-12-27T02:18:06.060Z,2.40
2022-12-27T02:20:44.356Z,4.63
2022-12-27T02:23:51.092Z,1.07
2022-12-27T02:26:34.988Z,2.90
2022-12-27T02:29:16.729Z,1.17
2022-12-27T02:31:53.286Z,3.33
2022-12-27T02:34:27.784Z,2.63
2022-12-27T02:37:01.098Z,1.10
2022-12-27T02:39:31.757Z,2.47
2022-12-27T02:42:18.528Z,1.13
2022-12-27T02:45:13.791Z,1.30
2022-12-27T02:48:00.815Z,1.50
2022-12-27T02:50:54.958Z,2.20
2022-12-27T02:53:35.545Z,2.57
2022-12-27T02:56:34.630Z,3.00
2022-12-27T02:59:17.869Z,5.10
2022-12-27T03:02:19.729Z,1.90
2022-12-27T03:05:01.247Z,1.43
2022-12-27T03:07:38.018Z,1.23
2022-12-27T03:10:45.525Z,1.50
2022-12-27T03:13:38.156Z,2.23
2022-12-27T03:16:15.720Z,4.10
2022-12-27T03:18:56.358Z,3.10
2022-12-27T03:21:47.441Z,1.07
2022-12-27T03:24:35.446Z,0.63
2022-12-27T03:27:08.992Z,2.60
2022-12-27T03:29:54.595Z,1.80
2022-12-27T03:32:50.625Z,2.50
2022-12-27T03:35:24.706Z,2.80
2022-12-27T03:38:03.709Z,1.63
2022-12-27T03:41:03.181Z,1.40
2022-12-27T03:43:31.022Z,3.47
2022-12-27T03:46:23.593Z,1.40
2022-12-27T03:49:01.590Z,2.10
2022-12-27T03:51:37.505Z,0.77
2022-12-27T03:54:10.536Z,2.73
2022-12-27T03:56:41.763Z,1.57
2022-12-27T03:59:13.222Z,0.70
2022-12-27T04:01:42.350Z,1.10
2022-12-27T04:04:10.594Z,2.30
2022-12-27T04:06:39.645Z,1.47
2022-12-27T04:09:27.785Z,3.90
2022-12-27T04:12:13.409Z,0.87
2022-12-27T04:14:59.076Z,2.40
2022-12-27T04:17:44.839Z,1.07
2022-12-27T04:20:30.153Z,1.03
2022-12-27T04:23:17.308Z,1.57
2022-12-27T04:26:02.647Z,1.90
2022-12-27T04:28:48.218Z,1.23
2022-12-27T04:31:34.723Z,1.23
2022-12-27T04:34:20.441Z,3.53
2022-12-27T04:36:48.698Z,0.90
2022-12-27T04:39:17.823Z,2.23
2022-12-27T04:42:03.376Z,0.93
2022-12-27T04:45:00.229Z,1.10
2022-12-27T04:47:45.982Z,1.90
2022-12-27T04:50:46.364Z,1.37
2022-12-27T04:53:34.090Z,2.07
2022-12-27T04:56:03.332Z,1.30
2022-12-27T04:58:31.106Z,1.70
2022-12-27T05:01:18.497Z,2.33
2022-12-27T05:03:47.520Z,1.20
2022-12-27T05:06:15.825Z,1.40
2022-12-27T05:09:00.993Z,1.87
2022-12-27T05:11:47.682Z,5.73
2022-12-27T05:14:17.004Z,2.43
2022-12-27T05:16:45.743Z,6.50
2022-12-27T05:19:15.781Z,5.23
2022-12-27T05:22:05.852Z,2.90
2022-12-27T05:24:52.066Z,1.13
2022-12-27T05:27:21.061Z,1.27
2022-12-27T05:29:48.797Z,1.20
2022-12-27T05:32:16.429Z,0.87
2022-12-27T05:34:44.100Z,1.77
2022-12-27T05:37:12.075Z,1.30
2022-12-27T05:39:40.073Z,1.20
2022-12-27T05:42:10.228Z,1.83
2022-12-27T05:44:39.220Z,1.23
2022-12-27T05:47:06.830Z,1.90
2022-12-27T05:49:34.458Z,2.20
2022-12-27T05:52:03.676Z,1.90
2022-12-27T05:54:33.682Z,1.97
2022-12-27T05:57:01.247Z,0.90
2022-12-27T05:59:28.849Z,7.53
2022-12-27T06:01:58.150Z,0.87
2022-12-27T06:04:28.354Z,2.77
2022-12-27T06:06:56.274Z,1.60
2022-12-27T06:09:24.086Z,1.03
2022-12-27T06:11:52.711Z,3.03
2022-12-27T06:14:22.027Z,1.70
2022-12-27T06:16:50.112Z,2.13
2022-12-27T06:19:19.587Z,2.80
2022-12-27T06:21:47.649Z,6.53
2022-12-27T06:24:17.065Z,6.77
2022-12-27T06:26:45.017Z,6.50
2022-12-27T06:29:14.202Z,9.83
2022-12-27T06:31:41.912Z,9.20
2022-12-27T06:34:11.959Z,5.93
2022-12-27T06:36:40.986Z,7.43
2022-12-27T06:39:11.268Z,6.90
2022-12-27T06:41:39.169Z,9.13
2022-12-27T06:44:06.883Z,6.10
2022-12-27T06:46:35.428Z,3.83
2022-12-27T06:49:04.138Z,3.73
2022-12-27T06:51:34.529Z,2.90
2022-12-27T06:54:04.679Z,4.63
2022-12-27T06:56:32.334Z,3.50
2022-12-27T06:59:00.196Z,2.87
2022-12-27T07:01:29.779Z,2.60
2022-12-27T07:03:59.510Z,2.70
2022-12-27T07:06:29.152Z,3.60
2022-12-27T07:08:58.181Z,3.70
2022-12-27T07:11:28.827Z,3.67
2022-12-27T07:13:57.399Z,2.97
2022-12-27T07:16:27.938Z,2.60
2022-12-27T07:18:57.801Z,5.87
2022-12-27T07:21:27.475Z,4.70
2022-12-27T07:23:55.779Z,2.63
2022-12-27T07:26:26.961Z,4.83
2022-12-27T07:28:57.185Z,4.80
2022-12-27T07:31:29.501Z,7.30
2022-12-27T07:33:57.880Z,5.17
2022-12-27T07:36:30.079Z,9.13
2022-12-27T07:38:58.160Z,5.57
2022-12-27T07:41:25.870Z,4.13
2022-12-27T07:43:54.384Z,7.23
2022-12-27T07:46:26.214Z,7.03
2022-12-27T07:48:55.762Z,4.53
2022-12-27T07:51:24.852Z,5.90
2022-12-27T07:53:54.462Z,4.30
2022-12-27T07:56:26.401Z,5.97
2022-12-27T07:58:55.684Z,4.13
2022-12-27T08:01:26.541Z,4.57
2022-12-27T08:03:54.713Z,3.37
2022-12-27T08:06:25.904Z,3.73
2022-12-27T08:08:55.507Z,4.90
2022-12-27T08:11:23.398Z,4.20
2022-12-27T08:13:54.188Z,3.43
2022-12-27T08:16:26.185Z,2.63
2022-12-27T08:18:54.855Z,4.07
2022-12-27T08:21:24.281Z,3.87
2022-12-27T08:23:51.992Z,4.50
2022-12-27T08:26:21.501Z,3.93
2022-12-27T08:28:49.270Z,3.53
2022-12-27T08:31:17.569Z,2.87
2022-12-27T08:33:46.838Z,3.73
2022-12-27T08:36:52.943Z,3.10
2022-12-27T08:39:04.122Z,6.13
2022-12-27T08:41:32.020Z,5.07
2022-12-27T08:44:00.162Z,5.10
2022-12-27T08:46:27.852Z,8.30
2022-12-27T08:48:57.072Z,5.50
2022-12-27T08:51:33.082Z,6.50
2022-12-27T08:54:07.493Z,4.00
2022-12-27T08:56:35.234Z,5.13
2022-12-27T08:59:03.291Z,2.53
2022-12-27T09:01:31.234Z,3.40
2022-12-27T09:04:00.281Z,4.10
2022-12-27T09:06:31.016Z,6.40
2022-12-27T09:08:59.784Z,3.37
2022-12-27T09:11:32.639Z,4.43
2022-12-27T09:14:02.913Z,4.27
2022-12-27T09:16:33.646Z,2.73
2022-12-27T09:19:03.899Z,4.53
2022-12-27T09:21:36.804Z,2.90
2022-12-27T09:24:04.792Z,4.40
2022-12-27T09:26:32.976Z,7.73
2022-12-27T09:29:02.657Z,2.73
2022-12-27T09:31:30.616Z,4.93
2022-12-27T09:34:00.675Z,3.23
2022-12-27T09:36:30.905Z,5.10
2022-12-27T09:39:00.477Z,3.67
2022-12-27T09:44:37.130Z,3.67
2022-12-27T09:47:12.175Z,3.67
2022-12-27T09:49:44.581Z,5.63
2022-12-27T09:52:19.127Z,3.20
2022-12-27T09:55:04.185Z,3.73
2022-12-27T09:57:37.458Z,5.90
2022-12-27T10:00:15.715Z,3.27
2022-12-27T10:02:47.127Z,4.50
2022-12-27T10:05:22.811Z,2.57
2022-12-27T10:08:14.721Z,3.20
2022-12-27T10:10:45.754Z,3.47
2022-12-27T10:13:29.412Z,3.53
2022-12-27T10:16:11.694Z,4.90
2022-12-27T10:18:50.353Z,5.27
2022-12-27T10:21:24.463Z,4.50
2022-12-27T10:23:59.411Z,3.13
2022-12-27T10:26:28.156Z,4.83
2022-12-27T10:29:01.308Z,2.70
2022-12-27T10:31:31.592Z,7.77
2022-12-27T10:34:03.979Z,2.73
2022-12-27T10:36:35.423Z,3.63
2022-12-27T10:39:16.522Z,3.90
2022-12-27T10:41:54.041Z,3.60
2022-12-27T10:44:24.727Z,2.80
2022-12-27T10:46:56.872Z,4.03
2022-12-27T10:49:27.688Z,4.23
2022-12-27T10:51:59.186Z,3.17
2022-12-27T10:54:31.132Z,3.40
2022-12-27T10:57:19.485Z,4.40
2022-12-27T10:59:47.418Z,3.77
2022-12-27T11:02:18.799Z,4.60
2022-12-27T11:04:59.982Z,2.67
2022-12-27T11:07:43.533Z,2.50
2022-12-27T11:10:25.078Z,5.20
2022-12-27T11:12:58.246Z,6.83
2022-12-27T11:15:28.318Z,5.73
2022-12-27T11:17:58.418Z,5.30
2022-12-27T11:20:29.513Z,4.27
2022-12-27T11:23:03.551Z,5.73
2022-12-27T11:25:36.467Z,4.10
2022-12-27T11:28:15.901Z,3.03
2022-12-27T11:30:54.945Z,5.17
2022-12-27T11:33:54.035Z,4.90
2022-12-27T11:36:27.044Z,3.77
2022-12-27T11:38:54.929Z,3.97
2022-12-27T11:41:33.900Z,4.93
2022-12-27T11:44:12.139Z,4.70
2022-12-27T11:46:46.066Z,3.60
2022-12-27T11:49:22.608Z,4.10
2022-12-27T11:52:17.955Z,4.28
2022-12-27T11:55:14.688Z,4.00
2022-12-27T11:58:10.522Z,4.23
2022-12-27T12:00:50.823Z,3.50
2022-12-27T12:03:46.347Z,3.00
2022-12-27T12:06:21.480Z,2.70
2022-12-27T12:09:16.416Z,1.47
2022-12-27T12:11:59.561Z,1.23
2022-12-27T12:14:49.689Z,3.70
2022-12-27T12:17:47.437Z,2.07
2022-12-27T12:20:33.483Z,1.07
2022-12-27T12:23:11.909Z,1.33
2022-12-27T12:26:06.885Z,2.77
2022-12-27T12:28:59.119Z,1.20
2022-12-27T12:31:46.068Z,1.13
2022-12-27T12:34:32.432Z,2.43
2022-12-27T12:37:13.101Z,2.63
2022-12-27T12:39:59.626Z,1.17
2022-12-27T12:42:38.513Z,1.73
2022-12-27T12:45:29.287Z,2.30
2022-12-27T12:48:14.897Z,1.90
2022-12-27T12:51:01.264Z,2.00
2022-12-27T12:53:44.782Z,2.93
2022-12-27T12:56:31.248Z,1.23
2022-12-27T12:59:10.050Z,1.10
2022-12-27T13:01:55.492Z,1.50
2022-12-27T13:04:56.841Z,3.40
2022-12-27T13:07:41.337Z,2.93
2022-12-27T13:10:40.243Z,0.90
2022-12-27T13:13:15.494Z,1.63
2022-12-27T13:15:55.543Z,1.47
2022-12-27T13:18:30.835Z,1.53
2022-12-27T13:21:11.032Z,2.33
2022-12-27T13:23:47.826Z,1.30
2022-12-27T13:26:23.703Z,1.83
2022-12-27T13:29:06.293Z,1.90
2022-12-27T13:31:45.118Z,1.60
2022-12-27T13:34:36.544Z,1.60
2022-12-27T13:37:22.750Z,2.80
2022-12-27T13:40:07.307Z,2.73
2022-12-27T13:43:08.883Z,2.90
2022-12-27T13:45:52.003Z,1.60
2022-12-27T13:48:43.898Z,2.40
2022-12-27T13:51:35.652Z,2.10
2022-12-27T13:55:02.171Z,2.00
2022-12-27T13:57:54.578Z,3.47
2022-12-27T14:00:23.382Z,2.00
2022-12-27T14:03:34.981Z,2.97
2022-12-27T14:06:27.839Z,1.50
2022-12-27T14:09:24.942Z,3.30
2022-12-27T14:12:09.951Z,2.83
2022-12-27T14:14:40.552Z,2.83
2022-12-27T14:17:23.054Z,4.27
2022-12-27T14:20:22.870Z,1.60
2022-12-27T14:23:19.775Z,2.87
2022-12-27T14:26:22.452Z,1.70
2022-12-27T14:29:33.167Z,2.47
2022-12-27T14:32:39.859Z,4.50
2022-12-27T14:35:30.175Z,3.93
2022-12-27T14:38:38.613Z,3.20
2022-12-27T14:41:59.148Z,2.27
2022-12-27T14:44:59.448Z,1.90
2022-12-27T14:47:53.251Z,2.00
2022-12-27T14:50:50.121Z,1.13
2022-12-27T14:53:56.673Z,2.30
2022-12-27T14:56:34.176Z,1.17
2022-12-27T14:59:22.101Z,1.50
2022-12-27T15:01:58.496Z,3.20
2022-12-27T15:04:51.440Z,2.33
2022-12-27T15:07:42.482Z,3.60
2022-12-27T15:10:20.671Z,1.97
2022-12-27T15:12:57.860Z,5.43
2022-12-27T15:15:37.486Z,4.77
2022-12-27T15:18:23.009Z,5.77
2022-12-27T15:21:12.366Z,4.50
2022-12-27T15:23:53.033Z,4.13
2022-12-27T15:26:31.917Z,2.20
2022-12-27T15:29:11.314Z,3.43
2022-12-27T15:31:50.481Z,1.73
2022-12-27T15:34:37.554Z,4.13
2022-12-27T15:37:08.250Z,1.70
2022-12-27T15:39:49.410Z,6.10
2022-12-27T15:42:48.087Z,3.23
2022-12-27T15:45:30.379Z,3.90
2022-12-27T15:48:15.792Z,3.27
2022-12-27T15:50:56.349Z,3.00
2022-12-27T15:53:47.885Z,4.60
2022-12-27T15:56:34.973Z,5.80
2022-12-27T15:59:39.908Z,2.80
2022-12-27T16:02:33.785Z,7.50
2022-12-27T16:05:34.384Z,9.90
2022-12-27T16:08:29.332Z,13.17
2022-12-27T16:10:59.665Z,7.70
2022-12-27T16:13:42.478Z,5.47
2022-12-27T16:16:33.459Z,2.80
2022-12-27T16:19:22.551Z,4.00
2022-12-27T16:21:50.502Z,2.70
2022-12-27T16:24:22.181Z,3.10
2022-12-27T16:26:58.664Z,5.83
2022-12-27T16:29:32.492Z,1.47
2022-12-27T16:32:20.818Z,3.37
2022-12-27T16:34:55.096Z,3.23
2022-12-27T16:37:28.513Z,5.20
2022-12-27T16:40:19.879Z,5.90
2022-12-27T16:43:30.447Z,3.63
2022-12-27T16:46:11.513Z,5.00
2022-12-27T16:48:58.887Z,2.60
2022-12-27T16:51:37.758Z,2.70
2022-12-27T16:54:23.825Z,12.73
2022-12-27T16:56:51.705Z,20.53
2022-12-27T16:59:56.667Z,11.17
2022-12-27T17:02:39.401Z,8.77
2022-12-27T17:05:35.594Z,7.97
2022-12-27T17:08:20.155Z,5.77
2022-12-27T17:11:00.986Z,6.50
2022-12-27T17:13:41.062Z,9.10
2022-12-27T17:16:19.980Z,8.17
2022-12-27T17:18:53.931Z,6.37
2022-12-27T17:21:30.492Z,7.80
2022-12-27T17:24:01.285Z,11.50
2022-12-27T17:26:47.714Z,9.17
2022-12-27T17:29:59.610Z,7.30
2022-12-27T17:32:39.974Z,5.83
2022-12-27T17:35:16.635Z,6.90
2022-12-27T17:38:03.514Z,5.73
2022-12-27T17:40:40.695Z,7.03
2022-12-27T17:43:39.176Z,7.67
2022-12-27T17:46:23.698Z,5.17
2022-12-27T17:48:54.650Z,4.00
2022-12-27T17:51:27.695Z,8.23
2022-12-27T17:54:14.317Z,4.57
2022-12-27T17:57:02.968Z,4.57
2022-12-27T17:59:32.089Z,3.07
2022-12-27T18:02:06.740Z,3.23
2022-12-27T18:04:37.238Z,7.80
2022-12-27T18:07:08.757Z,5.63
2022-12-27T18:09:40.730Z,10.40
2022-12-27T18:12:15.601Z,8.40
2022-12-27T18:14:44.183Z,7.53
2022-12-27T18:17:28.680Z,6.93
2022-12-27T18:19:57.146Z,6.70
2022-12-27T18:22:27.214Z,8.50
2022-12-27T18:24:55.054Z,6.37
2022-12-27T18:27:25.891Z,9.17
2022-12-27T18:29:53.605Z,6.97
2022-12-27T18:32:23.851Z,10.97
2022-12-27T18:34:56.423Z,10.10
2022-12-27T18:37:27.387Z,8.70
2022-12-27T18:40:00.102Z,11.57
2022-12-27T18:42:32.566Z,7.00
2022-12-27T18:45:05.583Z,7.73
2022-12-27T18:47:41.205Z,8.20
2022-12-27T18:50:18.289Z,7.20
2022-12-27T18:52:51.240Z,8.50
2022-12-27T18:55:26.719Z,4.70
2022-12-27T18:58:04.571Z,7.13
2022-12-27T19:00:33.233Z,7.37
2022-12-27T19:03:14.693Z,7.20
2022-12-27T19:05:59.551Z,7.53
2022-12-27T19:08:35.549Z,5.77
2022-12-27T19:11:04.569Z,6.07
2022-12-27T19:13:43.263Z,5.70
2022-12-27T19:16:23.582Z,13.60
2022-12-27T19:18:54.504Z,7.40
2022-12-27T19:21:31.630Z,10.53
2022-12-27T19:24:21.363Z,9.87
2022-12-27T19:26:49.660Z,6.13
2022-12-27T19:29:20.025Z,10.00
2022-12-27T19:31:55.582Z,6.57
2022-12-27T19:34:26.561Z,8.30
2022-12-27T19:36:56.212Z,11.40
2022-12-27T19:39:29.015Z,5.87
2022-12-27T19:42:00.872Z,7.70
2022-12-27T19:44:30.507Z,6.53
2022-12-27T19:46:58.648Z,8.50
2022-12-27T19:49:44.223Z,6.60
2022-12-27T19:52:17.641Z,12.47
2022-12-27T19:54:47.130Z,8.63
2022-12-27T19:57:14.997Z,9.73
2022-12-27T19:59:42.956Z,11.97
2022-12-27T20:02:10.931Z,7.13
2022-12-27T20:04:38.899Z,6.23
2022-12-27T20:07:06.853Z,6.60
2022-12-27T20:09:34.547Z,7.60
2022-12-27T20:12:03.745Z,7.80
2022-12-27T20:14:31.556Z,8.33
2022-12-27T20:16:59.458Z,7.10
2022-12-27T20:19:27.601Z,12.43
2022-12-27T20:21:55.365Z,6.60
2022-12-27T20:24:23.218Z,8.50
2022-12-27T20:26:50.981Z,6.90
2022-12-27T20:29:21.415Z,10.53
2022-12-27T20:31:52.272Z,5.43
2022-12-27T20:34:20.270Z,8.57
2022-12-27T20:36:48.474Z,6.90
2022-12-27T20:39:16.985Z,9.33
2022-12-27T20:41:45.150Z,11.07
2022-12-27T20:44:14.278Z,7.77
2022-12-27T20:46:43.668Z,10.17
2022-12-27T20:49:11.977Z,8.97
2022-12-27T20:51:41.644Z,7.70
2022-12-27T20:54:13.663Z,10.27
2022-12-27T20:56:41.332Z,9.87
2022-12-27T20:59:09.186Z,8.50
2022-12-27T21:01:37.224Z,9.53
2022-12-27T21:04:06.921Z,10.67
2022-12-27T21:06:34.663Z,9.40
2022-12-27T21:09:02.838Z,9.30
2022-12-27T21:11:31.934Z,11.67
2022-12-27T21:14:01.566Z,10.73
2022-12-27T21:16:31.568Z,11.40
2022-12-27T21:19:03.309Z,12.83
2022-12-27T21:21:34.410Z,10.90
2022-12-27T21:24:03.206Z,10.57
2022-12-27T21:26:32.792Z,8.90
2022-12-27T21:29:01.816Z,9.77
2022-12-27T21:31:30.761Z,10.70
2022-12-27T21:33:59.706Z,11.40
2022-12-27T21:36:28.807Z,11.33
2022-12-27T21:38:57.862Z,11.53
2022-12-27T21:41:29.118Z,11.00
2022-12-27T21:43:57.275Z,8.93
2022-12-27T21:46:26.951Z,10.17
2022-12-27T21:48:56.527Z,9.03
2022-12-27T21:51:24.997Z,9.67
2022-12-27T21:53:52.835Z,8.33
2022-12-27T21:56:22.502Z,10.90
2022-12-27T21:58:50.346Z,8.27
2022-12-27T22:01:21.368Z,8.43
2022-12-27T22:03:51.726Z,7.40
2022-12-27T22:06:22.458Z,9.27
2022-12-27T22:08:51.843Z,12.03
2022-12-27T22:11:22.690Z,12.53
2022-12-27T22:13:51.357Z,8.30
2022-12-27T22:16:22.120Z,9.10
2022-12-27T22:18:50.960Z,11.73
2022-12-27T22:21:21.950Z,8.23
2022-12-27T22:23:51.532Z,10.00
2022-12-27T22:26:22.630Z,13.87
2022-12-27T22:28:50.816Z,9.53
2022-12-27T22:31:21.537Z,9.27
2022-12-27T22:33:50.364Z,12.50
2022-12-27T22:36:20.721Z,12.33
2022-12-27T22:38:50.229Z,11.87
2022-12-27T22:41:20.267Z,9.00
2022-12-27T22:43:52.909Z,11.83
2022-12-27T22:46:21.434Z,9.87
2022-12-27T22:48:50.948Z,16.80
2022-12-27T22:51:21.180Z,12.23
2022-12-27T22:53:49.717Z,11.23
2022-12-27T22:56:19.369Z,11.63
2022-12-27T22:58:48.075Z,13.77
2022-12-27T23:01:19.498Z,9.77
2022-12-27T23:03:47.824Z,11.13
2022-12-27T23:06:16.283Z,13.97
2022-12-27T23:08:45.339Z,8.63
2022-12-27T23:11:15.466Z,9.73
2022-12-27T23:13:44.263Z,9.13
2022-12-27T23:16:12.583Z,9.57
2022-12-27T23:18:41.895Z,10.33
2022-12-27T23:21:20.440Z,10.70
2022-12-27T23:23:52.897Z,9.60
2022-12-27T23:26:23.335Z,10.90
2022-12-27T23:28:53.022Z,14.47
2022-12-27T23:31:23.242Z,12.87
2022-12-27T23:33:53.054Z,9.40
2022-12-27T23:36:21.717Z,10.10
2022-12-27T23:38:50.214Z,9.07
2022-12-27T23:41:21.075Z,11.73
2022-12-27T23:43:52.842Z,13.50
2022-12-27T23:46:25.122Z,9.50
2022-12-27T23:48:54.717Z,11.00
2022-12-27T23:51:22.791Z,11.87
2022-12-27T23:53:51.063Z,8.50
2022-12-27T23:56:20.652Z,13.43
2022-12-27T23:58:50.491Z,13.23
